SBNT/NAT METAR and TAF weather

Enter ICAO airport designator
Station Type Date Time Source
SBNT METAR 2019/06/17 15:00 UTC NOAA

SBNT 171500Z 16006KT 9999 VCSH FEW011 SCT017 FEW027TCU BKN050 2 7/23 Q1015


Station Type Date Time Source
SBNT Decoded METAR 2019/06/17 15:00 UTC NOAA

Natal Aeroporto, Brazil (SBNT) 05-55S 035-15W 49M
Jun 17, 2019 - 11:00 AM EDT / 2019.06.17 1500 UTC
Wind: from the SSE (160 degrees) at 7 MPH (6 KT):0
Visibility: greater than 7 mile(s):0
Sky conditions: mostly cloudy
Weather: showers in the vicinity; Towering cumulus clouds observed
Pressure (altimeter): 29.97 in. Hg (1015 hPa)
ob: SBNT 171500Z 16006KT 9999 VCSH FEW011 SCT017 FEW027TCU BKN050 2 7/23 Q1015
cycle: 15

Station Type Date Time Source
SBNT TAF 2019/06/17 12:09 UTC NOAA

TAF SBNT 171000Z 1712/1724 16005KT 8000 BKN010 FEW023TCU TN24/1712Z TX27/1715Z PROB30 1712/1714 4000 RA BKN007 FEW025TCU
BECMG 1715/1717 13010KT BKN017 FEW025TCU PROB30
TEMPO 1721/1724 20003KT 4000 RA BKN010 FEW023TCU
RMK PFM

Example: see airport list